Time;durP1;ratioP1;P1;durP2;ratioP2;P2;SDS_P1;SDS_P2;PMS_P1;PMS_P2;Temp;Humidity;BMP_temperature;BMP_pressure;BME280_temperature;BME280_humidity;BME280_pressure;Samples;Min_cycle;Max_cycle;Signal;HPM_P1;HPM_P2
2024/01/30 00:02:20;;;;;;;60.00;40.92;;;;;;;-2.17;100.00;102752.00;5549238;32;34189;-66
2024/01/30 00:05:23;;;;;;;64.45;40.55;;;;;;;-2.18;100.00;102752.03;5548691;32;34019;-67
2024/01/30 00:08:26;;;;;;;62.75;40.92;;;;;;;-2.20;100.00;102752.06;5549127;32;34169;-66
2024/01/30 00:11:29;;;;;;;61.85;39.80;;;;;;;-2.25;100.00;102749.56;5549122;32;34207;-68
2024/01/30 00:14:32;;;;;;;62.65;39.80;;;;;;;-2.27;100.00;102751.31;5549055;32;33970;-66
2024/01/30 00:17:36;;;;;;;27.67;10.95;;;;;;;-2.29;100.00;102754.84;5549032;32;34866;-67
2024/01/30 00:20:39;;;;;;;64.75;39.33;;;;;;;-2.14;100.00;102740.69;5549428;32;34177;-66
2024/01/30 00:23:42;;;;;;;60.00;38.75;;;;;;;-2.04;100.00;102740.50;5548284;32;34246;-67
2024/01/30 00:26:45;;;;;;;63.58;41.67;;;;;;;-2.13;100.00;102743.25;5548939;32;34854;-66
2024/01/30 00:29:48;;;;;;;64.82;41.90;;;;;;;-2.18;100.00;102741.66;5548905;32;34313;-66
2024/01/30 00:32:50;;;;;;;22.35;10.80;;;;;;;-2.29;100.00;102754.84;5548747;32;34089;-67
2024/01/30 00:35:53;;;;;;;65.22;41.70;;;;;;;-2.36;100.00;102755.81;5548128;32;34761;-66
2024/01/30 00:38:56;;;;;;;65.55;41.30;;;;;;;-2.39;100.00;102766.28;5548826;32;34823;-66
2024/01/30 00:41:59;;;;;;;71.15;42.42;;;;;;;-2.37;100.00;102774.91;5547947;32;34144;-66
2024/01/30 00:45:02;;;;;;;64.22;39.80;;;;;;;-2.38;100.00;102757.59;5547914;32;34085;-65
2024/01/30 00:48:06;;;;;;;67.80;41.08;;;;;;;-2.38;100.00;102768.87;5548462;32;34774;-65
2024/01/30 00:51:08;;;;;;;66.43;41.75;;;;;;;-2.39;100.00;102766.28;5548390;32;34009;-65
2024/01/30 00:54:12;;;;;;;59.33;39.83;;;;;;;-2.46;100.00;102756.84;5548443;32;34270;-67
2024/01/30 00:57:14;;;;;;;25.23;8.80;;;;;;;-2.46;100.00;102760.31;5547737;32;34658;-66
2024/01/30 01:00:18;;;;;;;61.92;40.80;;;;;;;-2.52;100.00;102755.25;5548279;32;34245;-66
2024/01/30 01:03:21;;;;;;;66.90;42.25;;;;;;;-2.54;100.00;102758.75;5548384;32;33983;-67
2024/01/30 01:06:24;;;;;;;26.15;10.48;;;;;;;-2.56;100.00;102750.97;5548344;32;34124;-65
2024/01/30 01:09:27;;;;;;;71.32;44.58;;;;;;;-2.54;100.00;102753.53;5548223;32;34794;-66
2024/01/30 01:12:30;;;;;;;69.85;45.25;;;;;;;-2.57;100.00;102754.47;5547958;32;34136;-67
2024/01/30 01:15:32;;;;;;;68.45;42.58;;;;;;;-2.58;100.00;102751.87;5548591;32;34846;-67
2024/01/30 01:18:35;;;;;;;70.03;43.38;;;;;;;-2.57;100.00;102751.00;5550764;32;34025;-66
2024/01/30 01:21:39;;;;;;;66.12;40.47;;;;;;;-2.56;100.00;102752.69;5550702;32;34141;-66
2024/01/30 01:24:42;;;;;;;62.62;41.45;;;;;;;-2.56;100.00;102744.91;5550856;32;34269;-66
2024/01/30 01:27:51;;;;;;;29.40;11.20;;;;;;;-2.62;100.00;102737.25;5550764;32;34211;-67
2024/01/30 01:30:58;;;;;;;65.37;42.58;;;;;;;-2.63;100.00;102751.97;5550365;32;35081;-65
2024/01/30 01:34:01;;;;;;;64.18;40.95;;;;;;;-2.67;100.00;102745.97;5550727;32;34263;-65
2024/01/30 01:37:05;;;;;;;61.75;41.08;;;;;;;-2.70;100.00;102735.63;5550685;32;34014;-66
2024/01/30 01:40:08;;;;;;;65.45;39.97;;;;;;;-2.72;100.00;102740.00;5550705;32;34766;-66
2024/01/30 01:43:11;;;;;;;69.15;42.45;;;;;;;-2.60;100.00;102744.09;5550956;32;32936;-66
2024/01/30 01:46:14;;;;;;;68.03;42.70;;;;;;;-2.67;100.00;102738.19;5549972;32;34024;-66
2024/01/30 01:49:19;;;;;;;23.55;10.63;;;;;;;-2.73;100.00;102737.41;5549876;32;34529;-66
2024/01/30 01:52:21;;;;;;;67.97;42.58;;;;;;;-2.73;100.00;102740.88;5550563;32;34009;-66
2024/01/30 01:55:27;;;;;;;30.17;11.45;;;;;;;-2.74;100.00;102741.75;5550470;32;34348;-65
2024/01/30 01:58:30;;;;;;;65.18;41.33;;;;;;;-2.79;100.00;102745.31;5550402;32;34921;-65
2024/01/30 02:01:34;;;;;;;62.65;41.03;;;;;;;-2.81;100.00;102726.31;5536530;32;34951;-64
2024/01/30 02:04:37;;;;;;;67.50;42.90;;;;;;;-2.82;100.00;102745.37;5550336;32;35028;-65
2024/01/30 02:07:41;;;;;;;16.80;8.90;;;;;;;-2.84;100.00;102732.41;5550285;32;34057;-65
2024/01/30 02:10:45;;;;;;;63.67;41.42;;;;;;;-2.92;100.00;102734.28;5550438;32;34156;-66
2024/01/30 02:13:49;;;;;;;65.15;42.00;;;;;;;-2.91;100.00;102728.19;5550273;32;34438;-67
2024/01/30 02:16:52;;;;;;;67.90;43.33;;;;;;;-2.93;100.00;102735.16;5550711;32;34877;-65
2024/01/30 02:19:54;;;;;;;70.10;42.47;;;;;;;-2.96;100.00;102731.75;5550710;32;34577;-67
2024/01/30 02:23:01;;;;;;;68.50;44.75;;;;;;;-3.01;100.00;102728.37;5550339;32;34084;-66
2024/01/30 02:26:03;;;;;;;66.60;42.35;;;;;;;-3.02;100.00;102726.62;5549908;32;34072;-66
2024/01/30 02:29:06;;;;;;;69.55;44.10;;;;;;;-3.02;100.00;102735.28;5549500;32;34799;-66
2024/01/30 02:32:09;;;;;;;66.10;42.62;;;;;;;-3.02;100.00;102730.09;5549984;32;34602;-66
2024/01/30 02:35:12;;;;;;;70.07;42.62;;;;;;;-3.10;100.00;102726.78;5550083;32;34308;-66
2024/01/30 02:38:18;;;;;;;77.95;46.03;;;;;;;-3.14;100.00;102736.31;5549431;32;34176;-66
2024/01/30 02:41:21;;;;;;;23.75;10.20;;;;;;;-3.13;100.00;102730.25;5549872;32;34269;-66
2024/01/30 02:44:24;;;;;;;66.45;43.42;;;;;;;-3.18;100.00;102728.59;5550019;32;34773;-65
2024/01/30 02:47:27;;;;;;;68.60;45.50;;;;;;;-3.19;100.00;102735.53;5549934;32;34146;-66
2024/01/30 02:50:29;;;;;;;23.70;9.38;;;;;;;-3.21;100.00;102739.91;5550025;32;34084;-65
2024/01/30 02:53:32;;;;;;;72.00;45.63;;;;;;;-3.23;100.00;102730.41;5550072;32;34220;-66
2024/01/30 02:56:35;;;;;;;71.20;43.65;;;;;;;-3.22;100.00;102726.94;5549993;32;34312;-66
2024/01/30 02:59:38;;;;;;;21.08;10.70;;;;;;;-3.17;100.00;102722.53;5549972;32;34086;-66
2024/01/30 03:02:41;;;;;;;77.82;46.55;;;;;;;-3.20;100.00;102725.19;5549668;32;35278;-66
2024/01/30 03:05:44;;;;;;;75.82;46.28;;;;;;;-3.21;100.00;102728.66;5549861;32;34290;-65
2024/01/30 03:08:46;;;;;;;72.22;45.30;;;;;;;-3.18;100.00;102719.09;5550032;32;33984;-66
2024/01/30 03:11:49;;;;;;;38.90;9.15;;;;;;;-3.23;100.00;102720.88;5549069;32;33918;-66
2024/01/30 03:14:52;;;;;;;72.60;46.08;;;;;;;-3.27;100.00;102723.56;5549804;32;34759;-66
2024/01/30 03:17:55;;;;;;;78.43;48.95;;;;;;;-3.32;100.00;102733.16;5549919;32;34231;-66
2024/01/30 03:20:58;;;;;;;71.00;47.10;;;;;;;-3.35;100.00;102730.59;5549735;32;34824;-66
2024/01/30 03:24:01;;;;;;;72.75;46.63;;;;;;;-3.37;100.00;102734.94;5549802;32;34222;-66
2024/01/30 03:27:03;;;;;;;20.20;9.93;;;;;;;-3.34;100.00;102733.16;5549776;32;33997;-66
2024/01/30 03:30:07;;;;;;;72.47;45.08;;;;;;;-3.42;100.00;102735.00;5549727;32;34702;-66
2024/01/30 03:33:10;;;;;;;68.30;44.58;;;;;;;-3.48;100.00;102734.22;5548724;32;34985;-66
2024/01/30 03:36:15;;;;;;;65.97;45.25;;;;;;;-3.45;100.00;102734.22;5549637;32;34186;-66
2024/01/30 03:39:18;;;;;;;15.77;9.32;;;;;;;-3.44;100.00;102738.53;5549057;32;33997;-66
2024/01/30 03:42:22;;;;;;;34.50;11.63;;;;;;;-3.41;100.00;102715.97;5549641;32;35061;-65
2024/01/30 03:45:24;;;;;;;65.50;43.10;;;;;;;-3.32;100.00;102720.16;5549553;32;34870;-66
2024/01/30 03:48:29;;;;;;;73.12;45.08;;;;;;;-3.33;100.00;102710.66;5548838;32;34012;-66
2024/01/30 03:51:31;;;;;;;20.05;9.07;;;;;;;-3.37;100.00;102711.59;5549604;32;34017;-66
2024/01/30 03:54:34;;;;;;;66.05;43.03;;;;;;;-3.39;100.00;102708.19;5549566;32;34969;-66
2024/01/30 03:57:37;;;;;;;23.23;9.82;;;;;;;-3.35;100.00;102709.84;5549586;32;34289;-65
2024/01/30 04:00:40;;;;;;;65.78;43.55;;;;;;;-3.37;100.00;102711.59;5549502;32;34730;-66
2024/01/30 04:03:44;;;;;;;67.40;43.38;;;;;;;-3.37;100.00;102709.84;5548435;32;35061;-66
2024/01/30 04:06:47;;;;;;;28.15;10.18;;;;;;;-3.39;100.00;102711.63;5549405;32;34152;-65
2024/01/30 04:09:50;;;;;;;71.05;44.50;;;;;;;-3.44;100.00;102708.25;5549624;32;34192;-65
2024/01/30 04:12:53;;;;;;;18.45;9.13;;;;;;;-3.45;100.00;102705.66;5548507;32;34179;-66
2024/01/30 04:15:57;;;;;;;64.18;43.03;;;;;;;-3.55;100.00;102708.41;5549337;32;34687;-67
2024/01/30 04:19:00;;;;;;;65.15;42.00;;;;;;;-3.55;100.00;102703.22;5549450;32;34743;-66
2024/01/30 04:22:03;;;;;;;21.02;8.90;;;;;;;-3.53;100.00;102704.03;5549526;32;34070;-66
2024/01/30 04:25:06;;;;;;;69.60;44.90;;;;;;;-3.56;100.00;102701.47;5549402;32;35484;-66
2024/01/30 04:28:11;;;;;;;29.48;10.48;;;;;;;-3.51;100.00;102696.22;5549219;32;34707;-66
2024/01/30 04:31:14;;;;;;;68.12;43.35;;;;;;;-3.52;100.00;102705.75;5549084;32;34304;-67
2024/01/30 04:34:17;;;;;;;27.95;10.07;;;;;;;-3.55;100.00;102707.53;5548713;32;34248;-67
2024/01/30 04:37:20;;;;;;;67.43;42.70;;;;;;;-3.46;100.00;102710.00;5548931;32;34001;-67
2024/01/30 04:40:23;;;;;;;63.90;42.60;;;;;;;-3.52;100.00;102704.87;5548757;32;34130;-66
2024/01/30 04:43:27;;;;;;;17.52;9.15;;;;;;;-3.33;100.00;102705.47;5548218;32;34150;-66
2024/01/30 04:46:30;;;;;;;64.03;43.17;;;;;;;-3.25;100.00;102703.63;5548719;32;34981;-67
2024/01/30 04:49:32;;;;;;;66.62;44.08;;;;;;;-3.36;100.00;102703.78;5548345;32;34750;-66
2024/01/30 04:52:36;;;;;;;14.80;8.00;;;;;;;-3.48;100.00;102705.69;5551101;32;34275;-66
2024/01/30 04:55:38;;;;;;;65.87;43.45;;;;;;;-3.44;100.00;102707.38;5551046;32;34005;-66
2024/01/30 04:58:41;;;;;;;65.22;44.75;;;;;;;-3.47;100.00;102710.00;5550384;32;34152;-66
2024/01/30 05:01:44;;;;;;;19.85;9.40;;;;;;;-3.49;100.00;102716.97;5551125;32;33969;-66
2024/01/30 05:04:47;;;;;;;67.68;45.00;;;;;;;-3.46;100.00;102719.50;5550813;32;35180;-66
2024/01/30 05:07:50;;;;;;;72.85;46.63;;;;;;;-3.52;100.00;102726.50;5550841;32;34941;-65
2024/01/30 05:10:53;;;;;;;21.10;9.05;;;;;;;-3.49;100.00;102725.63;5550479;32;34128;-65
2024/01/30 05:13:56;;;;;;;72.32;46.03;;;;;;;-3.40;100.00;102732.41;5550824;32;34318;-66
2024/01/30 05:16:58;;;;;;;74.15;47.70;;;;;;;-3.40;100.00;102728.09;5550835;32;34031;-65
2024/01/30 05:20:01;;;;;;;75.68;45.38;;;;;;;-3.45;100.00;102729.03;5551069;32;33997;-66
2024/01/30 05:23:05;;;;;;;15.70;7.78;;;;;;;-3.50;100.00;102749.84;5550857;32;34132;-67
2024/01/30 05:26:08;;;;;;;66.30;43.67;;;;;;;-3.45;100.00;102750.62;5551167;32;34136;-67
2024/01/30 05:29:11;;;;;;;63.78;43.47;;;;;;;-3.43;100.00;102754.06;5550691;32;34845;-66
2024/01/30 05:32:13;;;;;;;17.45;7.25;;;;;;;-3.07;100.00;102750.94;5550643;32;33852;-66
2024/01/30 05:35:16;;;;;;;71.43;44.28;;;;;;;-2.91;100.00;102750.72;5550677;32;34495;-66
2024/01/30 05:38:20;;;;;;;69.37;46.13;;;;;;;-2.99;100.00;102756.00;5550618;32;34001;-66
2024/01/30 05:41:23;;;;;;;15.57;7.97;;;;;;;-3.15;100.00;102755.37;5550732;32;34267;-67
2024/01/30 05:44:25;;;;;;;65.35;42.08;;;;;;;-3.30;100.00;102754.75;5550577;32;34145;-66
2024/01/30 05:47:28;;;;;;;23.50;9.10;;;;;;;-3.41;100.00;102757.50;5550923;32;34055;-66
2024/01/30 05:50:31;;;;;;;66.90;42.90;;;;;;;-3.48;100.00;102762.78;5549935;32;34197;-66
2024/01/30 05:53:34;;;;;;;72.25;45.17;;;;;;;-3.59;100.00;102758.63;5549834;32;34124;-66
2024/01/30 05:56:37;;;;;;;15.27;8.10;;;;;;;-3.58;100.00;102760.31;5550712;32;34045;-66
2024/01/30 05:59:40;;;;;;;64.10;40.83;;;;;;;-3.69;100.00;102758.75;5549857;32;33813;-66
2024/01/30 06:02:43;;;;;;;60.95;41.63;;;;;;;-3.73;100.00;102759.66;5549751;32;34121;-66
2024/01/30 06:05:46;;;;;;;17.62;7.70;;;;;;;-3.77;100.00;102752.78;5536708;32;34316;-66
2024/01/30 06:08:49;;;;;;;65.78;43.15;;;;;;;-3.80;100.00;102765.78;5550055;32;34111;-66
2024/01/30 06:11:52;;;;;;;66.37;42.65;;;;;;;-3.80;100.00;102760.59;5550222;32;34082;-66
2024/01/30 06:14:56;;;;;;;66.22;44.00;;;;;;;-3.64;100.00;102764.72;5550351;32;34550;-65
2024/01/30 06:18:00;;;;;;;21.73;10.02;;;;;;;-3.58;100.00;102767.22;5550197;32;34220;-65
2024/01/30 06:21:04;;;;;;;68.68;44.00;;;;;;;-3.54;100.00;102763.75;5549418;32;34043;-65
2024/01/30 06:24:07;;;;;;;68.18;46.10;;;;;;;-3.58;100.00;102767.22;5549785;32;34416;-66
2024/01/30 06:27:10;;;;;;;17.95;9.27;;;;;;;-3.58;100.00;102765.50;5549982;32;34822;-66
2024/01/30 06:30:13;;;;;;;67.97;44.80;;;;;;;-3.59;100.00;102757.75;5550336;32;34613;-66
2024/01/30 06:33:16;;;;;;;62.28;43.10;;;;;;;-3.56;100.00;102758.56;5549085;32;34787;-66
2024/01/30 06:36:19;;;;;;;24.98;8.73;;;;;;;-3.51;100.00;102768.87;5550033;32;34970;-66
2024/01/30 06:39:21;;;;;;;72.72;43.13;;;;;;;-3.42;100.00;102766.16;5549793;32;34262;-66
2024/01/30 06:42:24;;;;;;;24.63;8.45;;;;;;;-3.32;100.00;102772.06;5549606;32;34014;-66
2024/01/30 06:45:27;;;;;;;66.20;43.70;;;;;;;-3.39;100.00;102762.69;5549548;32;34122;-66
2024/01/30 06:48:30;;;;;;;65.72;43.00;;;;;;;-3.41;100.00;102774.81;5549893;32;33313;-66
2024/01/30 06:51:33;;;;;;;64.40;42.05;;;;;;;-3.22;100.00;102778.84;5549692;32;34111;-67
2024/01/30 06:54:36;;;;;;;71.60;43.78;;;;;;;-3.28;100.00;102772.00;5549733;32;34822;-66
2024/01/30 06:57:39;;;;;;;65.20;41.35;;;;;;;-3.28;100.00;102772.00;5549735;32;34114;-66
2024/01/30 07:00:42;;;;;;;16.48;7.70;;;;;;;-3.23;100.00;102772.81;5550193;32;34242;-67
2024/01/30 07:03:46;;;;;;;62.30;41.35;;;;;;;-3.09;100.00;102772.59;5549804;32;34065;-67
2024/01/30 07:06:49;;;;;;;17.25;9.63;;;;;;;-3.07;100.00;102773.44;5549822;32;34326;-67
2024/01/30 07:09:56;;;;;;;66.43;41.83;;;;;;;-3.09;100.00;102770.00;5549620;32;34087;-66
2024/01/30 07:13:01;;;;;;;64.78;42.47;;;;;;;-2.99;100.00;102771.59;5548106;32;34188;-65
2024/01/30 07:16:04;;;;;;;70.20;44.85;;;;;;;-2.74;100.00;102774.66;5549651;32;34235;-66
2024/01/30 07:19:09;;;;;;;66.72;43.45;;;;;;;-2.70;100.00;102773.72;5549460;32;34304;-66
2024/01/30 07:22:12;;;;;;;66.62;43.40;;;;;;;-2.69;100.00;102767.66;5548821;32;34759;-66
2024/01/30 07:25:16;;;;;;;24.15;9.95;;;;;;;-2.72;100.00;102778.97;5549821;32;34329;-66
2024/01/30 07:28:19;;;;;;;63.25;41.70;;;;;;;-2.63;100.00;102775.34;5549362;32;34120;-65
2024/01/30 07:31:23;;;;;;;62.50;41.47;;;;;;;-2.54;100.00;102777.78;5549316;32;33951;-66
2024/01/30 07:34:27;;;;;;;59.83;41.30;;;;;;;-2.50;100.00;102778.59;5549321;32;34058;-66
2024/01/30 07:37:30;;;;;;;62.28;41.03;;;;;;;-2.44;100.00;102771.56;5549262;32;34860;-66
2024/01/30 07:40:33;;;;;;;63.22;41.78;;;;;;;-2.36;100.00;102774.00;5549285;32;34005;-67
2024/01/30 07:43:38;;;;;;;61.42;39.20;;;;;;;-2.26;100.00;102773.81;5548873;32;34304;-66
2024/01/30 07:46:41;;;;;;;62.47;40.83;;;;;;;-2.24;100.00;102766.00;5548662;32;34742;-66
2024/01/30 07:49:44;;;;;;;64.78;38.58;;;;;;;-2.10;100.00;102768.34;5548880;32;34908;-66
2024/01/30 07:52:51;;;;;;;60.45;40.22;;;;;;;-1.82;100.00;102769.53;5549198;32;34777;-66
2024/01/30 07:55:54;;;;;;;60.92;39.78;;;;;;;-1.74;100.00;102758.97;5549177;32;34222;-66
2024/01/30 07:58:56;;;;;;;57.47;39.88;;;;;;;-1.68;100.00;102762.28;5549171;32;34685;-66
2024/01/30 08:01:59;;;;;;;59.85;39.45;;;;;;;-1.60;100.00;102759.53;5548868;32;35063;-65
2024/01/30 08:05:03;;;;;;;57.55;39.95;;;;;;;-1.58;100.00;102757.75;5548983;32;34156;-67
2024/01/30 08:08:06;;;;;;;57.17;39.08;;;;;;;-1.54;100.00;102769.81;5549022;32;34340;-66
2024/01/30 08:11:08;;;;;;;55.70;39.22;;;;;;;-1.52;100.00;102770.66;5549043;32;33996;-66
2024/01/30 08:14:13;;;;;;;60.78;39.95;;;;;;;-1.45;100.00;102767.88;5547786;32;34357;-66
2024/01/30 08:17:17;;;;;;;58.60;39.45;;;;;;;-1.43;100.00;102775.66;5548877;32;34607;-66
2024/01/30 08:20:19;;;;;;;59.90;39.47;;;;;;;-1.34;100.00;102771.09;5548297;32;34003;-66
2024/01/30 08:23:22;;;;;;;59.75;41.72;;;;;;;-1.15;100.00;102778.50;5549022;32;34665;-67
2024/01/30 08:26:26;;;;;;;62.28;41.50;;;;;;;-1.14;100.00;102772.41;5548374;32;34782;-67
2024/01/30 08:29:29;;;;;;;61.92;42.53;;;;;;;-1.00;100.00;102780.75;5549091;32;34233;-66
2024/01/30 08:32:32;;;;;;;66.28;40.95;;;;;;;-0.82;100.00;102779.50;5548729;32;34249;-66
2024/01/30 08:35:35;;;;;;;58.83;41.30;;;;;;;-0.75;100.00;102776.69;5548603;32;34238;-67
2024/01/30 08:38:38;;;;;;;63.90;42.62;;;;;;;-0.65;100.00;102783.41;5548512;32;34348;-67
2024/01/30 08:41:41;;;;;;;58.80;42.00;;;;;;;-0.61;100.00;102781.56;5548484;32;34309;-67
2024/01/30 08:44:44;;;;;;;60.88;40.40;;;;;;;-0.45;100.00;102777.69;5548744;32;34283;-67
2024/01/30 08:47:47;;;;;;;59.60;40.95;;;;;;;-0.39;100.00;102781.88;5548337;32;34459;-67
2024/01/30 08:50:49;;;;;;;54.13;38.83;;;;;;;-0.09;100.00;102786.28;5547911;32;34736;-67
2024/01/30 08:53:53;;;;;;;62.33;40.55;;;;;;;0.04;100.00;102785.06;5548141;32;34139;-67
2024/01/30 08:56:58;;;;;;;58.60;38.65;;;;;;;0.28;100.00;102787.00;5548411;32;35579;-68
2024/01/30 09:00:04;;;;;;;52.08;37.00;;;;;;;0.77;100.00;102780.34;5548177;32;34759;-67
2024/01/30 09:03:07;;;;;;;48.72;32.97;;;;;;;1.19;100.00;102772.91;5548313;32;34856;-68
2024/01/30 09:06:10;;;;;;;48.65;32.45;;;;;;;1.64;100.00;102781.88;5548382;32;34137;-68
2024/01/30 09:09:14;;;;;;;44.00;31.12;;;;;;;2.11;100.00;102768.87;5548036;32;34508;-68
2024/01/30 09:12:17;;;;;;;47.28;31.40;;;;;;;2.36;100.00;102774.06;5548047;32;34693;-68
2024/01/30 09:15:20;;;;;;;52.05;31.17;;;;;;;2.65;100.00;102773.84;5548080;32;34171;-68
2024/01/30 09:18:26;;;;;;;49.05;31.70;;;;;;;1.98;100.00;102767.59;5548035;32;34667;-68
2024/01/30 09:21:29;;;;;;;45.55;31.10;;;;;;;1.88;100.00;102769.69;5547808;32;34126;-68
2024/01/30 09:24:32;;;;;;;47.67;31.65;;;;;;;2.50;100.00;102762.16;5547954;32;34202;-67
2024/01/30 09:27:35;;;;;;;47.92;31.62;;;;;;;2.56;100.00;102766.31;5547905;32;34118;-67
2024/01/30 09:30:37;;;;;;;49.63;30.25;;;;;;;2.58;100.00;102769.72;5547845;32;33986;-68
2024/01/30 09:33:41;;;;;;;45.35;30.58;;;;;;;2.38;100.00;102773.09;5547691;32;33972;-67
2024/01/30 09:36:44;;;;;;;42.35;27.48;;;;;;;2.04;100.00;102764.75;5548481;32;34054;-67
2024/01/30 09:39:47;;;;;;;42.83;27.85;;;;;;;2.26;100.00;102770.94;5550342;32;35157;-67
2024/01/30 09:42:51;;;;;;;43.80;29.50;;;;;;;2.11;100.00;102758.41;5550348;32;34629;-68
2024/01/30 09:45:55;;;;;;;49.47;29.63;;;;;;;1.97;100.00;102763.28;5550458;32;34007;-67
2024/01/30 09:49:02;;;;;;;43.30;28.48;;;;;;;1.99;100.00;102764.91;5550232;32;34040;-66
2024/01/30 09:52:06;;;;;;;42.38;29.02;;;;;;;1.95;100.00;102763.31;5550329;32;34747;-67
2024/01/30 09:55:10;;;;;;;40.75;28.83;;;;;;;2.34;100.00;102754.91;5550263;32;34737;-66
2024/01/30 09:58:13;;;;;;;49.83;28.48;;;;;;;2.19;100.00;102761.56;5550150;32;34290;-66
2024/01/30 10:01:18;;;;;;;46.22;28.62;;;;;;;2.26;100.00;102765.69;5550070;32;34663;-67
2024/01/30 10:04:22;;;;;;;41.47;27.45;;;;;;;2.76;100.00;102762.94;5536669;32;34249;-68
2024/01/30 10:07:25;;;;;;;42.22;27.30;;;;;;;3.45;100.00;102764.47;5549984;32;34270;-67
2024/01/30 10:10:28;;;;;;;42.53;27.92;;;;;;;3.52;100.00;102765.94;5549772;32;34195;-68
2024/01/30 10:13:31;;;;;;;40.75;27.35;;;;;;;3.49;100.00;102761.66;5550029;32;34738;-68
2024/01/30 10:16:35;;;;;;;44.95;27.70;;;;;;;3.69;100.00;102759.97;5550280;32;33963;-68
2024/01/30 10:19:39;;;;;;;41.55;29.02;;;;;;;3.93;100.00;102764.16;5550330;32;34638;-67
2024/01/30 10:22:44;;;;;;;37.80;24.05;;;;;;;3.73;100.00;102762.37;5549528;32;34253;-68
2024/01/30 10:25:47;;;;;;;32.58;23.52;;;;;;;3.62;100.00;102756.75;5550558;32;35717;-68
2024/01/30 10:28:51;;;;;;;34.00;23.95;;;;;;;3.97;100.00;102744.72;5550175;32;34699;-67
2024/01/30 10:32:03;;;;;;;35.67;23.12;;;;;;;4.24;100.00;102745.28;5550300;32;34770;-67
2024/01/30 10:35:09;;;;;;;33.25;23.75;;;;;;;4.26;100.00;102748.69;5549964;32;34785;-68
2024/01/30 10:38:15;;;;;;;40.60;24.02;;;;;;;4.37;100.00;102747.25;5550610;32;34702;-68
2024/01/30 10:41:26;;;;;;;34.70;22.05;;;;;;;4.73;100.00;102744.72;5550253;32;35506;-67
2024/01/30 10:44:34;;;;;;;32.33;21.52;;;;;;;4.72;100.00;102731.63;5549300;32;34130;-68
2024/01/30 10:47:39;;;;;;;31.40;21.17;;;;;;;5.02;100.00;102729.31;5549784;32;34142;-68
2024/01/30 10:50:43;;;;;;;29.92;21.15;;;;;;;4.50;100.00;102729.16;5550248;32;34116;-67
2024/01/30 10:53:56;;;;;;;30.52;21.12;;;;;;;4.14;100.00;102713.31;5550999;32;34379;-66
2024/01/30 10:57:04;;;;;;;33.08;21.90;;;;;;;3.79;100.00;102714.87;5552082;32;34045;-66
2024/01/30 11:00:12;;;;;;;32.45;23.27;;;;;;;4.18;100.00;102709.62;5550551;32;33987;-66
2024/01/30 11:03:16;;;;;;;30.27;22.87;;;;;;;4.19;100.00;102697.34;5549802;32;35015;-67
2024/01/30 11:06:23;;;;;;;29.45;21.73;;;;;;;4.24;100.00;102697.97;5550200;32;34068;-67
2024/01/30 11:09:29;;;;;;;29.83;20.83;;;;;;;4.35;100.00;102693.94;5549194;32;34174;-67
2024/01/30 11:12:40;;;;;;;28.98;20.95;;;;;;;4.23;100.00;102693.63;5549419;32;34493;-69
2024/01/30 11:15:48;;;;;;;31.70;21.50;;;;;;;4.12;100.00;102694.13;5548889;32;33150;-66
2024/01/30 11:18:52;;;;;;;30.85;19.83;;;;;;;4.38;100.00;102690.31;5549652;32;34110;-68
2024/01/30 11:21:56;;;;;;;33.15;22.17;;;;;;;4.54;100.00;102675.53;5549730;32;33999;-67
2024/01/30 11:25:03;;;;;;;33.25;22.98;;;;;;;4.45;100.00;102678.59;5549727;32;34701;-67
2024/01/30 11:28:14;;;;;;;36.60;24.20;;;;;;;4.46;100.00;102671.53;5549782;32;34035;-67
2024/01/30 11:31:19;;;;;;;33.53;22.33;;;;;;;4.37;100.00;102671.06;5549713;32;32762;-67
2024/01/30 11:34:22;;;;;;;91.93;27.80;;;;;;;4.56;100.00;102672.81;5548877;32;34104;-67
2024/01/30 11:37:27;;;;;;;28.90;20.65;;;;;;;4.60;100.00;102674.37;5549358;32;34935;-66
2024/01/30 11:40:31;;;;;;;30.75;20.67;;;;;;;4.89;100.00;102672.97;5549415;32;34195;-68
2024/01/30 11:43:35;;;;;;;28.90;19.40;;;;;;;6.03;100.00;102671.41;5549706;32;34110;-67
2024/01/30 11:46:38;;;;;;;25.90;18.55;;;;;;;8.49;100.00;102669.12;5549617;32;34616;-68
2024/01/30 11:49:42;;;;;;;24.10;17.40;;;;;;;9.40;91.96;102663.03;5548682;32;34104;-68
2024/01/30 11:52:45;;;;;;;27.05;17.52;;;;;;;9.69;82.45;102669.81;5549252;32;34187;-68
2024/01/30 11:55:51;;;;;;;27.30;16.65;;;;;;;7.98;97.81;102667.97;5549195;32;34082;-68
2024/01/30 11:58:54;;;;;;;23.15;16.27;;;;;;;6.92;100.00;102649.66;5548456;32;34061;-68
2024/01/30 12:01:57;;;;;;;25.60;17.30;;;;;;;6.28;100.00;102649.00;5549218;32;34694;-68
2024/01/30 12:05:07;;;;;;;28.40;18.77;;;;;;;5.58;100.00;102644.84;5549396;32;34724;-67
2024/01/30 12:08:16;;;;;;;29.17;17.98;;;;;;;5.69;100.00;102642.50;5548306;32;34361;-66
2024/01/30 12:11:19;;;;;;;26.17;17.92;;;;;;;5.53;100.00;102636.31;5549141;32;33972;-67
2024/01/30 12:14:25;;;;;;;30.55;19.12;;;;;;;5.47;100.00;102618.25;5548693;32;34322;-66
2024/01/30 12:17:32;;;;;;;25.42;17.08;;;;;;;7.04;100.00;102615.59;5549089;32;34215;-67
2024/01/30 12:20:35;;;;;;;22.77;15.48;;;;;;;8.17;100.00;102621.75;5548987;32;34285;-67
2024/01/30 12:23:39;;;;;;;20.92;14.43;;;;;;;7.40;98.04;102613.41;5549301;32;32601;-68
2024/01/30 12:26:42;;;;;;;23.02;14.40;;;;;;;8.17;98.56;102619.13;5549117;32;34353;-68
2024/01/30 12:29:45;;;;;;;21.08;14.20;;;;;;;8.35;88.34;102621.56;5548666;32;34209;-68
2024/01/30 12:32:50;;;;;;;23.35;14.95;;;;;;;8.81;90.36;102614.13;5548839;32;35001;-68
2024/01/30 12:35:54;;;;;;;17.62;12.35;;;;;;;8.93;85.90;102610.63;5548860;32;34175;-67
2024/01/30 12:39:05;;;;;;;17.73;11.93;;;;;;;8.41;85.21;102616.72;5548839;32;34792;-68
2024/01/30 12:42:08;;;;;;;15.93;11.60;;;;;;;7.16;96.93;102613.09;5548794;32;35191;-67
2024/01/30 12:45:10;;;;;;;19.83;13.38;;;;;;;6.97;96.39;102613.31;5548710;32;34471;-68
2024/01/30 12:48:14;;;;;;;18.83;12.55;;;;;;;7.72;92.18;102614.91;5548649;32;34066;-68
2024/01/30 12:51:17;;;;;;;19.40;12.07;;;;;;;7.56;91.29;102606.22;5548556;32;34109;-68
2024/01/30 12:54:19;;;;;;;15.32;10.73;;;;;;;6.74;95.30;102602.41;5547629;32;35018;-68
2024/01/30 12:57:22;;;;;;;16.35;10.90;;;;;;;7.33;91.16;102599.72;5548401;32;34080;-68
2024/01/30 13:00:25;;;;;;;16.95;10.63;;;;;;;7.54;87.60;102597.56;5548637;32;34017;-68
2024/01/30 13:03:28;;;;;;;17.10;10.40;;;;;;;7.45;89.09;102595.50;5547612;32;33612;-68
2024/01/30 13:06:31;;;;;;;18.83;10.13;;;;;;;7.25;89.14;102588.78;5547705;32;34346;-67
2024/01/30 13:09:34;;;;;;;14.48;9.40;;;;;;;6.78;92.92;102596.00;5548467;32;33403;-67
2024/01/30 13:12:38;;;;;;;13.48;9.40;;;;;;;7.17;89.92;102585.72;5550600;32;34024;-67
2024/01/30 13:15:41;;;;;;;14.63;10.07;;;;;;;7.59;85.49;102581.44;5550753;32;34350;-67
2024/01/30 13:18:44;;;;;;;18.45;10.77;;;;;;;7.81;83.62;102582.63;5550925;32;33974;-68
2024/01/30 13:21:47;;;;;;;12.73;9.32;;;;;;;7.56;87.35;102576.31;5549966;32;34245;-67
2024/01/30 13:24:51;;;;;;;12.93;9.00;;;;;;;6.98;87.75;102574.56;5550578;32;34976;-68
2024/01/30 13:27:53;;;;;;;12.07;8.65;;;;;;;7.24;88.02;102573.88;5550680;32;34834;-68
2024/01/30 13:30:57;;;;;;;13.65;8.80;;;;;;;7.04;86.47;102573.38;5550487;32;33990;-67
2024/01/30 13:34:00;;;;;;;18.23;10.07;;;;;;;7.38;85.92;102580.94;5549502;32;35035;-66
2024/01/30 13:37:05;;;;;;;14.35;9.20;;;;;;;7.38;84.96;102571.25;5550491;32;34058;-67
2024/01/30 13:40:09;;;;;;;18.37;9.07;;;;;;;7.22;86.59;102575.75;5550610;32;34042;-67
2024/01/30 13:43:17;;;;;;;10.50;7.70;;;;;;;7.07;85.48;102575.84;5550690;32;34094;-66
2024/01/30 13:46:20;;;;;;;14.13;7.60;;;;;;;7.23;82.04;102577.44;5550618;32;35066;-67
2024/01/30 13:49:23;;;;;;;11.98;6.20;;;;;;;6.82;83.15;102569.37;5550292;32;34796;-67
2024/01/30 13:52:27;;;;;;;10.55;5.93;;;;;;;6.75;78.96;102569.81;5549905;32;33981;-67